Airfield :







YOU CAN JOIN US ON...

 
LOGIN :

Register | Disclaimer

   EN    FR    IT 

 









Legend :    VFR   Marginal VFR   IFR   Intensive IFR   Very Intensive IFR
Visi :
Ceiling :
>= 8 km
>= 3000ft
5 to 8 km
1000 to 3000 ft
1500m to 5 km
500 to 1000 ft
800 to 1500m
200 to 500 ft
< 800m
< 200 ft
Symbols :   Thunderstorms  Fog  Heavy snow  Heavy precipitations  Wind > 20 kt






- Airport Elevation : 342 ft


KCON - Concord Municipal

CURRENT METAR :
  • 110511Z AUTO 28007KT 10SM OVC036 01/M01 A3002 RMK AO2 RAE0453UPB03E09SNB0453E03 P0001 T00111011

EXPIRED METARs :
  • 110451Z AUTO 31009KT 10SM -RA OVC025 02/M01 A3002 RMK AO2 SLP168 P0001 T00171006 401280017
  • 110422Z AUTO 29013G18KT 10SM -RA OVC029 02/M01 A3001 RMK AO2 P0000 T00221006
  • 110406Z AUTO 29010KT 10SM -RA FEW014 OVC031 02/00 A2999 RMK AO2 P0000 T00220000
  • 110351Z AUTO 30011KT 10SM -RA FEW014 OVC025 03/00 A2999 RMK AO2 SLP157 P0005 T00280000
  • 110323Z AUTO 30011G17KT 7SM RA FEW015 OVC025 03/01 A2998 RMK AO2 P0001 T00330006
  • 110251Z AUTO 30009KT 10SM -RA FEW040 BKN050 OVC080 04/01 A2996 RMK AO2 SLP148 P0000 60002 T00390006 53027

TAF KCON
Valid from the 11 at 00:00 until the 12 at 00:00 UTC


102336Z 1100/1124 29008KT P6SM SCT030 OVC050
TEMPO 1100/1103 -SHRA BKN030
FM110700 30007KT P6SM -SHSN BKN035
FM111000 31006KT P6SM BKN040



MET'MAP, your aeronautical weather chart ! - Copyright ORBIFLY December 2007 - Disclaimer

ORBIFLY MET'MAP TEAM :

Programming & Development : Alexandra Zaïnal
Concept & original design : Baudouin d'Aumeries
Assistance for programming : Marc-Olivier Méhu
Technical & hardware support : Manuel Goepfert

Contact : metmap@orbifly.com




SOURCES & CREDITS :

   NOAA